Terminal Aerodrome Forecast
Issued by NWS Shreveport, LA

Current Version | Previous Version | Text Only | Print | Product List | Glossary On
Versions: 1 2 3 4 5 6 7 8 9 10 11 12 13 14 15
745
FTUS44 KSHV 031130
TAFTXK
TAF
KTXK 031130Z 0312/0412 33007KT P6SM SCT035
     FM031800 34008KT P6SM SCT040
     FM040000 28004KT P6SM SCT150 SCT250=

USA.gov is the U.S. government's official web portal to all federal, state and local government web resources and services.